This is the latest recevied weather packets stored in our database for station/object F4FSZ-11. If no packets are shown the sender has not sent any weather packets the latest 1 day(s).
| Time | Temp. | Humidity | Pressure | Rain* | Wind** | Luminosity | Snow |
|---|---|---|---|---|---|---|---|
| 1778096943 | 10.56° C | 100% | 1004.8 hPa | - | - | - | - |
| 1778096043 | 10.56° C | 100% | 1004.6 hPa | - | - | - | - |
| 1778086142 | 11.67° C | 100% | 1002.9 hPa | - | - | - | - |
| 1778084342 | 12.22° C | 100% | 1002.7 hPa | - | - | - | - |
| 1778078042 | 13.89° C | 88% | 1002.3 hPa | - | - | - | - |
| 1778076242 | 15.56° C | 82% | 1002.3 hPa | - | - | - | - |
| 1778075342 | 15° C | 88% | 1002.5 hPa | - | - | - | - |
| 1778072642 | 14.44° C | 83% | 1002.3 hPa | - | - | - | - |
| 1778069041 | 16.11° C | 68% | 1002.2 hPa | - | - | - | - |
| 1778068141 | 15.56° C | 73% | 1002.4 hPa | - | - | - | - |
| 1778067241 | 15.56° C | 69% | 1002.3 hPa | - | - | - | - |
| 1778066341 | 15.56° C | 80% | 1002.3 hPa | - | - | - | - |
| 1778065441 | 14.44° C | 83% | 1002.4 hPa | - | - | - | - |
| 1778054640 | 14.44° C | 78% | 1001.1 hPa | - | - | - | - |
| 1778053740 | 13.33° C | 85% | 1001.4 hPa | - | - | - | - |
| 1778052840 | 12.22° C | 95% | 1001.5 hPa | - | - | - | - |
| 1778051940 | 12.22° C | 98% | 1001.5 hPa | - | - | - | - |
| 1778051040 | 12.78° C | 100% | 1001.3 hPa | - | - | - | - |
| 1778050140 | 11.11° C | 100% | 1001.3 hPa | - | - | - | - |
| 1778043839 | 11.67° C | 100% | 1001.1 hPa | - | - | - | - |
| 1778042939 | 11.67° C | 100% | 1001 hPa | - | - | - | - |
| 1778042039 | 11.11° C | 100% | 1001.1 hPa | - | - | - | - |
| 1778041139 | 11.11° C | 100% | 1001.1 hPa | - | - | - | - |
| 1778040239 | 11.11° C | 100% | 1001.1 hPa | - | - | - | - |
| 1778039339 | 11.11° C | 100% | 1001.1 hPa | - | - | - | - |
* Rain since midnight (hover to see other rain measurements)
** Current wind speed in m/s (hover to see current wind gust speed)